sensor_id;sensor_type;location;lat;lon;timestamp;temperature;humidity
30628;DHT22;17394;50.890;4.724;2022-11-09T00:02:15;14.80;99.90
30628;DHT22;17394;50.890;4.724;2022-11-09T00:04:41;14.80;99.90
30628;DHT22;17394;50.890;4.724;2022-11-09T00:07:07;14.80;99.90
30628;DHT22;17394;50.890;4.724;2022-11-09T00:09:33;14.80;99.90
30628;DHT22;17394;50.890;4.724;2022-11-09T00:11:59;14.80;99.90
30628;DHT22;17394;50.890;4.724;2022-11-09T00:14:29;14.80;99.90
30628;DHT22;17394;50.890;4.724;2022-11-09T00:16:56;14.80;99.90
30628;DHT22;17394;50.890;4.724;2022-11-09T00:19:22;14.80;99.90
30628;DHT22;17394;50.890;4.724;2022-11-09T00:21:51;14.70;99.90
30628;DHT22;17394;50.890;4.724;2022-11-09T00:24:17;14.70;99.90
30628;DHT22;17394;50.890;4.724;2022-11-09T00:26:43;14.60;99.90
30628;DHT22;17394;50.890;4.724;2022-11-09T00:29:09;14.60;99.90
30628;DHT22;17394;50.890;4.724;2022-11-09T00:31:35;14.50;99.90
30628;DHT22;17394;50.890;4.724;2022-11-09T00:34:01;14.50;99.90
30628;DHT22;17394;50.890;4.724;2022-11-09T00:36:28;14.50;99.90
30628;DHT22;17394;50.890;4.724;2022-11-09T00:38:59;14.50;99.90
30628;DHT22;17394;50.890;4.724;2022-11-09T00:41:25;14.40;99.90
30628;DHT22;17394;50.890;4.724;2022-11-09T00:43:52;14.40;99.90
30628;DHT22;17394;50.890;4.724;2022-11-09T00:46:18;14.30;99.90
30628;DHT22;17394;50.890;4.724;2022-11-09T00:48:45;14.30;99.90
30628;DHT22;17394;50.890;4.724;2022-11-09T00:51:11;14.30;99.90
30628;DHT22;17394;50.890;4.724;2022-11-09T00:53:37;14.30;99.90
30628;DHT22;17394;50.890;4.724;2022-11-09T00:56:06;14.20;99.90
30628;DHT22;17394;50.890;4.724;2022-11-09T00:58:34;14.20;99.90
30628;DHT22;17394;50.890;4.724;2022-11-09T01:01:09;14.10;99.90
30628;DHT22;17394;50.890;4.724;2022-11-09T01:03:38;14.20;99.90
30628;DHT22;17394;50.890;4.724;2022-11-09T01:06:05;14.10;99.90
30628;DHT22;17394;50.890;4.724;2022-11-09T01:08:32;14.10;99.90
30628;DHT22;17394;50.890;4.724;2022-11-09T01:11:03;14.00;99.90
30628;DHT22;17394;50.890;4.724;2022-11-09T01:13:30;14.10;99.90
30628;DHT22;17394;50.890;4.724;2022-11-09T01:15:55;14.10;99.90
30628;DHT22;17394;50.890;4.724;2022-11-09T01:18:22;14.00;99.90
30628;DHT22;17394;50.890;4.724;2022-11-09T01:20:49;14.00;99.90
30628;DHT22;17394;50.890;4.724;2022-11-09T01:23:17;14.00;99.90
30628;DHT22;17394;50.890;4.724;2022-11-09T01:25:43;14.00;99.90
30628;DHT22;17394;50.890;4.724;2022-11-09T01:28:10;14.00;99.90
30628;DHT22;17394;50.890;4.724;2022-11-09T01:30:38;14.00;99.90
30628;DHT22;17394;50.890;4.724;2022-11-09T01:33:06;13.90;99.90
30628;DHT22;17394;50.890;4.724;2022-11-09T01:35:33;13.90;99.90
30628;DHT22;17394;50.890;4.724;2022-11-09T01:37:59;13.80;99.90
30628;DHT22;17394;50.890;4.724;2022-11-09T01:40:29;13.80;99.90
30628;DHT22;17394;50.890;4.724;2022-11-09T01:42:56;13.80;99.90
30628;DHT22;17394;50.890;4.724;2022-11-09T01:45:25;13.80;99.90
30628;DHT22;17394;50.890;4.724;2022-11-09T01:48:02;13.80;99.90
30628;DHT22;17394;50.890;4.724;2022-11-09T01:50:42;13.80;99.90
30628;DHT22;17394;50.890;4.724;2022-11-09T01:53:19;13.80;99.90
30628;DHT22;17394;50.890;4.724;2022-11-09T01:55:47;13.80;99.90
30628;DHT22;17394;50.890;4.724;2022-11-09T01:58:19;13.80;99.90
30628;DHT22;17394;50.890;4.724;2022-11-09T02:00:48;13.80;99.90
30628;DHT22;17394;50.890;4.724;2022-11-09T02:03:25;13.90;99.90
30628;DHT22;17394;50.890;4.724;2022-11-09T02:05:52;13.90;99.90
30628;DHT22;17394;50.890;4.724;2022-11-09T02:08:21;14.00;99.90
30628;DHT22;17394;50.890;4.724;2022-11-09T02:13:19;14.00;99.90
30628;DHT22;17394;50.890;4.724;2022-11-09T02:15:48;14.00;99.90
30628;DHT22;17394;50.890;4.724;2022-11-09T02:18:14;14.00;99.90
30628;DHT22;17394;50.890;4.724;2022-11-09T02:20:52;14.00;99.90
30628;DHT22;17394;50.890;4.724;2022-11-09T02:23:19;14.00;99.90
30628;DHT22;17394;50.890;4.724;2022-11-09T02:25:52;14.00;99.90
30628;DHT22;17394;50.890;4.724;2022-11-09T02:28:20;14.00;99.90
30628;DHT22;17394;50.890;4.724;2022-11-09T02:30:49;14.00;99.90
30628;DHT22;17394;50.890;4.724;2022-11-09T02:33:16;14.00;99.90
30628;DHT22;17394;50.890;4.724;2022-11-09T02:35:42;14.10;99.90
30628;DHT22;17394;50.890;4.724;2022-11-09T02:38:12;14.10;99.90
30628;DHT22;17394;50.890;4.724;2022-11-09T02:40:40;14.10;99.90
30628;DHT22;17394;50.890;4.724;2022-11-09T02:43:08;14.00;99.90
30628;DHT22;17394;50.890;4.724;2022-11-09T02:45:35;14.00;99.90
30628;DHT22;17394;50.890;4.724;2022-11-09T02:48:00;13.90;99.90
30628;DHT22;17394;50.890;4.724;2022-11-09T02:50:29;13.90;99.90
30628;DHT22;17394;50.890;4.724;2022-11-09T02:52:55;13.80;99.90
30628;DHT22;17394;50.890;4.724;2022-11-09T02:55:21;13.80;99.90
30628;DHT22;17394;50.890;4.724;2022-11-09T02:57:47;13.70;99.90
30628;DHT22;17394;50.890;4.724;2022-11-09T03:00:12;13.60;99.90
30628;DHT22;17394;50.890;4.724;2022-11-09T03:02:39;13.60;99.90
30628;DHT22;17394;50.890;4.724;2022-11-09T03:05:05;13.60;99.90
30628;DHT22;17394;50.890;4.724;2022-11-09T03:07:31;13.60;99.90
30628;DHT22;17394;50.890;4.724;2022-11-09T03:09:57;13.50;99.90
30628;DHT22;17394;50.890;4.724;2022-11-09T03:12:22;13.50;99.90
30628;DHT22;17394;50.890;4.724;2022-11-09T03:14:55;13.40;99.90
30628;DHT22;17394;50.890;4.724;2022-11-09T03:17:21;13.40;99.90
30628;DHT22;17394;50.890;4.724;2022-11-09T03:19:47;13.30;99.90
30628;DHT22;17394;50.890;4.724;2022-11-09T03:22:13;13.30;99.90
30628;DHT22;17394;50.890;4.724;2022-11-09T03:24:39;13.30;99.90
30628;DHT22;17394;50.890;4.724;2022-11-09T03:27:05;13.20;99.90
30628;DHT22;17394;50.890;4.724;2022-11-09T03:29:30;13.20;99.90
30628;DHT22;17394;50.890;4.724;2022-11-09T03:31:56;13.20;99.90
30628;DHT22;17394;50.890;4.724;2022-11-09T03:34:22;13.20;99.90
30628;DHT22;17394;50.890;4.724;2022-11-09T03:36:48;13.20;99.90
30628;DHT22;17394;50.890;4.724;2022-11-09T03:39:13;13.10;99.90
30628;DHT22;17394;50.890;4.724;2022-11-09T03:41:39;13.10;99.90
30628;DHT22;17394;50.890;4.724;2022-11-09T03:44:05;13.10;99.90
30628;DHT22;17394;50.890;4.724;2022-11-09T03:46:31;13.00;99.90
30628;DHT22;17394;50.890;4.724;2022-11-09T03:48:56;13.00;99.90
30628;DHT22;17394;50.890;4.724;2022-11-09T03:51:22;13.00;99.90
30628;DHT22;17394;50.890;4.724;2022-11-09T03:53:48;13.10;99.90
30628;DHT22;17394;50.890;4.724;2022-11-09T03:56:14;13.10;99.90
30628;DHT22;17394;50.890;4.724;2022-11-09T03:58:40;13.20;99.90
30628;DHT22;17394;50.890;4.724;2022-11-09T04:01:08;13.20;99.90
30628;DHT22;17394;50.890;4.724;2022-11-09T04:03:35;13.20;99.90
30628;DHT22;17394;50.890;4.724;2022-11-09T04:06:01;13.30;99.90
30628;DHT22;17394;50.890;4.724;2022-11-09T04:08:27;13.30;99.90
30628;DHT22;17394;50.890;4.724;2022-11-09T04:10:53;13.40;99.90
30628;DHT22;17394;50.890;4.724;2022-11-09T04:13:19;13.40;99.90
30628;DHT22;17394;50.890;4.724;2022-11-09T04:15:44;13.40;99.90
30628;DHT22;17394;50.890;4.724;2022-11-09T04:18:12;13.40;99.90
30628;DHT22;17394;50.890;4.724;2022-11-09T04:20:39;13.30;99.90
30628;DHT22;17394;50.890;4.724;2022-11-09T04:23:06;13.30;99.90
30628;DHT22;17394;50.890;4.724;2022-11-09T04:25:35;13.20;99.90
30628;DHT22;17394;50.890;4.724;2022-11-09T04:28:02;13.10;99.90
30628;DHT22;17394;50.890;4.724;2022-11-09T04:30:30;13.10;99.90
30628;DHT22;17394;50.890;4.724;2022-11-09T04:32:57;13.00;99.90
30628;DHT22;17394;50.890;4.724;2022-11-09T04:35:23;13.00;99.90
30628;DHT22;17394;50.890;4.724;2022-11-09T04:38:00;12.90;99.90
30628;DHT22;17394;50.890;4.724;2022-11-09T04:40:28;12.80;99.90
30628;DHT22;17394;50.890;4.724;2022-11-09T04:42:54;12.80;99.90
30628;DHT22;17394;50.890;4.724;2022-11-09T04:45:21;12.80;99.90
30628;DHT22;17394;50.890;4.724;2022-11-09T04:47:47;12.70;99.90
30628;DHT22;17394;50.890;4.724;2022-11-09T04:50:13;12.70;99.90
30628;DHT22;17394;50.890;4.724;2022-11-09T04:52:39;12.70;99.90
30628;DHT22;17394;50.890;4.724;2022-11-09T04:55:05;12.60;99.90
30628;DHT22;17394;50.890;4.724;2022-11-09T04:57:32;12.60;99.90
30628;DHT22;17394;50.890;4.724;2022-11-09T04:59:58;12.60;99.90
30628;DHT22;17394;50.890;4.724;2022-11-09T05:02:23;12.60;99.90
30628;DHT22;17394;50.890;4.724;2022-11-09T05:04:49;12.60;99.90
30628;DHT22;17394;50.890;4.724;2022-11-09T05:07:15;12.60;99.90
30628;DHT22;17394;50.890;4.724;2022-11-09T05:09:41;12.60;99.90
30628;DHT22;17394;50.890;4.724;2022-11-09T05:12:07;12.60;99.90
30628;DHT22;17394;50.890;4.724;2022-11-09T05:14:33;12.50;99.90
30628;DHT22;17394;50.890;4.724;2022-11-09T05:16:59;12.50;99.90
30628;DHT22;17394;50.890;4.724;2022-11-09T05:19:24;12.50;99.90
30628;DHT22;17394;50.890;4.724;2022-11-09T05:21:50;12.40;99.90
30628;DHT22;17394;50.890;4.724;2022-11-09T05:24:16;12.50;99.90
30628;DHT22;17394;50.890;4.724;2022-11-09T05:26:41;12.50;99.90
30628;DHT22;17394;50.890;4.724;2022-11-09T05:29:09;12.40;99.90
30628;DHT22;17394;50.890;4.724;2022-11-09T05:31:36;12.40;99.90
30628;DHT22;17394;50.890;4.724;2022-11-09T05:34:04;12.40;99.90
30628;DHT22;17394;50.890;4.724;2022-11-09T05:36:30;12.40;99.90
30628;DHT22;17394;50.890;4.724;2022-11-09T05:38:56;12.40;99.90
30628;DHT22;17394;50.890;4.724;2022-11-09T05:41:22;12.40;99.90
30628;DHT22;17394;50.890;4.724;2022-11-09T05:43:48;12.40;99.90
30628;DHT22;17394;50.890;4.724;2022-11-09T05:46:15;12.30;99.90
30628;DHT22;17394;50.890;4.724;2022-11-09T05:48:42;12.30;99.90
30628;DHT22;17394;50.890;4.724;2022-11-09T05:51:10;12.30;99.90
30628;DHT22;17394;50.890;4.724;2022-11-09T05:53:36;12.20;99.90
30628;DHT22;17394;50.890;4.724;2022-11-09T05:56:10;12.20;99.90
30628;DHT22;17394;50.890;4.724;2022-11-09T05:58:37;12.30;99.90
30628;DHT22;17394;50.890;4.724;2022-11-09T06:01:09;12.20;99.90
30628;DHT22;17394;50.890;4.724;2022-11-09T06:03:35;12.20;99.90
30628;DHT22;17394;50.890;4.724;2022-11-09T06:06:06;12.20;99.90
30628;DHT22;17394;50.890;4.724;2022-11-09T06:08:32;12.20;99.90
30628;DHT22;17394;50.890;4.724;2022-11-09T06:11:07;12.20;99.90
30628;DHT22;17394;50.890;4.724;2022-11-09T06:13:33;12.20;99.90
30628;DHT22;17394;50.890;4.724;2022-11-09T06:16:01;12.10;99.90
30628;DHT22;17394;50.890;4.724;2022-11-09T06:18:29;12.10;99.90
30628;DHT22;17394;50.890;4.724;2022-11-09T06:20:57;12.10;99.90
30628;DHT22;17394;50.890;4.724;2022-11-09T06:23:23;12.10;99.90
30628;DHT22;17394;50.890;4.724;2022-11-09T06:25:57;12.00;99.90
30628;DHT22;17394;50.890;4.724;2022-11-09T06:28:23;12.00;99.90
30628;DHT22;17394;50.890;4.724;2022-11-09T06:30:48;12.00;99.90
30628;DHT22;17394;50.890;4.724;2022-11-09T06:33:14;12.00;99.90
30628;DHT22;17394;50.890;4.724;2022-11-09T06:35:40;12.00;99.90
30628;DHT22;17394;50.890;4.724;2022-11-09T06:38:07;12.00;99.90
30628;DHT22;17394;50.890;4.724;2022-11-09T06:40:33;12.00;99.90
30628;DHT22;17394;50.890;4.724;2022-11-09T06:43:00;12.00;99.90
30628;DHT22;17394;50.890;4.724;2022-11-09T06:45:27;12.00;99.90
30628;DHT22;17394;50.890;4.724;2022-11-09T06:47:57;12.00;99.90
30628;DHT22;17394;50.890;4.724;2022-11-09T06:50:25;11.90;99.90
30628;DHT22;17394;50.890;4.724;2022-11-09T06:52:55;11.90;99.90
30628;DHT22;17394;50.890;4.724;2022-11-09T06:55:22;11.90;99.90
30628;DHT22;17394;50.890;4.724;2022-11-09T06:57:47;11.90;99.90
30628;DHT22;17394;50.890;4.724;2022-11-09T07:00:14;11.90;99.90
30628;DHT22;17394;50.890;4.724;2022-11-09T07:02:41;11.90;99.90
30628;DHT22;17394;50.890;4.724;2022-11-09T07:05:07;11.90;99.90
30628;DHT22;17394;50.890;4.724;2022-11-09T07:07:33;11.90;99.90
30628;DHT22;17394;50.890;4.724;2022-11-09T07:09:59;11.90;99.90
30628;DHT22;17394;50.890;4.724;2022-11-09T07:12:24;11.90;99.90
30628;DHT22;17394;50.890;4.724;2022-11-09T07:14:50;11.90;99.90
30628;DHT22;17394;50.890;4.724;2022-11-09T07:17:16;11.90;99.90
30628;DHT22;17394;50.890;4.724;2022-11-09T07:19:42;11.90;99.90
30628;DHT22;17394;50.890;4.724;2022-11-09T07:22:08;12.00;99.90
30628;DHT22;17394;50.890;4.724;2022-11-09T07:24:33;11.90;99.90
30628;DHT22;17394;50.890;4.724;2022-11-09T07:26:59;11.90;99.90
30628;DHT22;17394;50.890;4.724;2022-11-09T07:29:25;12.00;99.90
30628;DHT22;17394;50.890;4.724;2022-11-09T07:31:50;12.00;99.90
30628;DHT22;17394;50.890;4.724;2022-11-09T07:34:16;12.00;99.90
30628;DHT22;17394;50.890;4.724;2022-11-09T07:36:42;12.00;99.90
30628;DHT22;17394;50.890;4.724;2022-11-09T07:39:08;12.00;99.90
30628;DHT22;17394;50.890;4.724;2022-11-09T07:41:34;12.10;99.90
30628;DHT22;17394;50.890;4.724;2022-11-09T07:44:00;12.10;99.90
30628;DHT22;17394;50.890;4.724;2022-11-09T07:46:26;12.10;99.90
30628;DHT22;17394;50.890;4.724;2022-11-09T07:48:51;12.10;99.90
30628;DHT22;17394;50.890;4.724;2022-11-09T07:51:17;12.10;99.90
30628;DHT22;17394;50.890;4.724;2022-11-09T07:53:43;12.10;99.90
30628;DHT22;17394;50.890;4.724;2022-11-09T07:56:08;12.20;99.90
30628;DHT22;17394;50.890;4.724;2022-11-09T07:58:34;12.20;99.90
30628;DHT22;17394;50.890;4.724;2022-11-09T08:01:06;12.20;99.90
30628;DHT22;17394;50.890;4.724;2022-11-09T08:03:32;12.30;99.90
30628;DHT22;17394;50.890;4.724;2022-11-09T08:05:58;12.30;99.90
30628;DHT22;17394;50.890;4.724;2022-11-09T08:08:24;12.30;99.90
30628;DHT22;17394;50.890;4.724;2022-11-09T08:10:49;12.30;99.90
30628;DHT22;17394;50.890;4.724;2022-11-09T08:13:18;12.30;99.90
30628;DHT22;17394;50.890;4.724;2022-11-09T08:15:44;12.40;99.90
30628;DHT22;17394;50.890;4.724;2022-11-09T08:18:16;12.40;99.90
30628;DHT22;17394;50.890;4.724;2022-11-09T08:20:42;12.50;99.90
30628;DHT22;17394;50.890;4.724;2022-11-09T08:23:16;12.50;99.90
30628;DHT22;17394;50.890;4.724;2022-11-09T08:25:43;12.60;99.90
30628;DHT22;17394;50.890;4.724;2022-11-09T08:28:08;12.60;99.90
30628;DHT22;17394;50.890;4.724;2022-11-09T08:30:34;12.70;99.90
30628;DHT22;17394;50.890;4.724;2022-11-09T08:33:01;12.80;99.90
30628;DHT22;17394;50.890;4.724;2022-11-09T08:35:28;12.90;99.90
30628;DHT22;17394;50.890;4.724;2022-11-09T08:37:55;13.00;99.90
30628;DHT22;17394;50.890;4.724;2022-11-09T08:40:22;13.00;99.90
30628;DHT22;17394;50.890;4.724;2022-11-09T08:42:50;13.10;99.90
30628;DHT22;17394;50.890;4.724;2022-11-09T08:45:17;13.20;99.90
30628;DHT22;17394;50.890;4.724;2022-11-09T08:47:43;13.30;99.90
30628;DHT22;17394;50.890;4.724;2022-11-09T08:50:11;13.30;99.90
30628;DHT22;17394;50.890;4.724;2022-11-09T08:52:37;13.30;99.90
30628;DHT22;17394;50.890;4.724;2022-11-09T08:55:03;13.40;99.90
30628;DHT22;17394;50.890;4.724;2022-11-09T08:57:29;13.60;99.90
30628;DHT22;17394;50.890;4.724;2022-11-09T08:59:55;13.60;99.90
30628;DHT22;17394;50.890;4.724;2022-11-09T09:02:21;13.70;99.90
30628;DHT22;17394;50.890;4.724;2022-11-09T09:04:47;13.70;99.90
30628;DHT22;17394;50.890;4.724;2022-11-09T09:07:14;13.70;99.90
30628;DHT22;17394;50.890;4.724;2022-11-09T09:09:40;13.80;99.90
30628;DHT22;17394;50.890;4.724;2022-11-09T09:12:07;13.80;99.90
30628;DHT22;17394;50.890;4.724;2022-11-09T09:14:34;13.80;99.90
30628;DHT22;17394;50.890;4.724;2022-11-09T09:17:00;13.70;99.90
30628;DHT22;17394;50.890;4.724;2022-11-09T09:19:26;13.70;99.90
30628;DHT22;17394;50.890;4.724;2022-11-09T09:21:53;13.70;99.90
30628;DHT22;17394;50.890;4.724;2022-11-09T09:24:19;13.70;99.90
30628;DHT22;17394;50.890;4.724;2022-11-09T09:26:44;13.70;99.90
30628;DHT22;17394;50.890;4.724;2022-11-09T09:29:12;13.70;99.90
30628;DHT22;17394;50.890;4.724;2022-11-09T09:31:39;13.80;99.90
30628;DHT22;17394;50.890;4.724;2022-11-09T09:34:05;13.70;99.90
30628;DHT22;17394;50.890;4.724;2022-11-09T09:36:30;13.90;99.90
30628;DHT22;17394;50.890;4.724;2022-11-09T09:38:57;14.00;99.90
30628;DHT22;17394;50.890;4.724;2022-11-09T09:41:38;14.10;99.90
30628;DHT22;17394;50.890;4.724;2022-11-09T09:44:33;14.30;99.90
30628;DHT22;17394;50.890;4.724;2022-11-09T09:47:23;14.30;99.90
30628;DHT22;17394;50.890;4.724;2022-11-09T09:50:35;14.40;99.90
30628;DHT22;17394;50.890;4.724;2022-11-09T09:55:39;14.40;99.90
30628;DHT22;17394;50.890;4.724;2022-11-09T10:00:36;14.50;99.90
30628;DHT22;17394;50.890;4.724;2022-11-09T10:03:04;14.40;99.90
30628;DHT22;17394;50.890;4.724;2022-11-09T10:08:34;14.60;99.90
30628;DHT22;17394;50.890;4.724;2022-11-09T10:13:50;14.80;99.90
30628;DHT22;17394;50.890;4.724;2022-11-09T10:24:53;15.00;99.90
30628;DHT22;17394;50.890;4.724;2022-11-09T10:27:34;15.00;99.90
30628;DHT22;17394;50.890;4.724;2022-11-09T10:30:16;15.20;99.90
30628;DHT22;17394;50.890;4.724;2022-11-09T10:32:46;15.20;99.90
30628;DHT22;17394;50.890;4.724;2022-11-09T10:35:14;15.20;99.90
30628;DHT22;17394;50.890;4.724;2022-11-09T10:37:46;15.20;99.90
30628;DHT22;17394;50.890;4.724;2022-11-09T10:43:09;15.10;99.90
30628;DHT22;17394;50.890;4.724;2022-11-09T10:45:38;15.10;99.90
30628;DHT22;17394;50.890;4.724;2022-11-09T10:48:06;15.10;99.90
30628;DHT22;17394;50.890;4.724;2022-11-09T10:53:17;15.20;99.90
30628;DHT22;17394;50.890;4.724;2022-11-09T10:58:35;15.20;99.90
30628;DHT22;17394;50.890;4.724;2022-11-09T11:03:33;15.40;99.90
30628;DHT22;17394;50.890;4.724;2022-11-09T11:08:33;15.70;99.90
30628;DHT22;17394;50.890;4.724;2022-11-09T11:11:12;15.70;99.90
30628;DHT22;17394;50.890;4.724;2022-11-09T11:13:39;15.70;99.90
30628;DHT22;17394;50.890;4.724;2022-11-09T11:18:51;15.40;99.90
30628;DHT22;17394;50.890;4.724;2022-11-09T11:21:19;15.20;99.90
30628;DHT22;17394;50.890;4.724;2022-11-09T11:24:13;15.10;99.90
30628;DHT22;17394;50.890;4.724;2022-11-09T11:29:23;15.00;99.90
30628;DHT22;17394;50.890;4.724;2022-11-09T11:31:52;15.00;99.90
30628;DHT22;17394;50.890;4.724;2022-11-09T11:34:18;15.10;99.90
30628;DHT22;17394;50.890;4.724;2022-11-09T11:39:49;15.20;99.90
30628;DHT22;17394;50.890;4.724;2022-11-09T11:47:57;15.10;99.90
30628;DHT22;17394;50.890;4.724;2022-11-09T11:59:10;14.50;99.90
30628;DHT22;17394;50.890;4.724;2022-11-09T12:15:46;14.60;99.90
30628;DHT22;17394;50.890;4.724;2022-11-09T12:18:16;14.70;99.90
30628;DHT22;17394;50.890;4.724;2022-11-09T12:29:36;14.80;99.90
30628;DHT22;17394;50.890;4.724;2022-11-09T12:32:30;14.80;99.90
30628;DHT22;17394;50.890;4.724;2022-11-09T12:35:39;14.80;99.90
30628;DHT22;17394;50.890;4.724;2022-11-09T12:40:42;14.70;99.90
30628;DHT22;17394;50.890;4.724;2022-11-09T12:43:22;14.70;99.90
30628;DHT22;17394;50.890;4.724;2022-11-09T12:45:52;14.50;99.90
30628;DHT22;17394;50.890;4.724;2022-11-09T12:50:51;14.30;99.90
30628;DHT22;17394;50.890;4.724;2022-11-09T12:53:18;14.10;99.90
30628;DHT22;17394;50.890;4.724;2022-11-09T12:58:23;13.50;99.90
30628;DHT22;17394;50.890;4.724;2022-11-09T13:00:52;13.20;99.90
30628;DHT22;17394;50.890;4.724;2022-11-09T13:03:28;13.00;99.90
30628;DHT22;17394;50.890;4.724;2022-11-09T13:06:18;12.90;99.90
30628;DHT22;17394;50.890;4.724;2022-11-09T13:09:06;12.80;99.90
30628;DHT22;17394;50.890;4.724;2022-11-09T13:11:59;12.80;99.90
30628;DHT22;17394;50.890;4.724;2022-11-09T13:14:40;12.80;99.90
30628;DHT22;17394;50.890;4.724;2022-11-09T13:17:57;12.80;99.90
30628;DHT22;17394;50.890;4.724;2022-11-09T13:20:50;12.70;99.90
30628;DHT22;17394;50.890;4.724;2022-11-09T13:23:28;12.60;99.90
30628;DHT22;17394;50.890;4.724;2022-11-09T13:25:55;12.60;99.90
30628;DHT22;17394;50.890;4.724;2022-11-09T13:30:58;12.60;99.90
30628;DHT22;17394;50.890;4.724;2022-11-09T13:33:31;12.70;99.90
30628;DHT22;17394;50.890;4.724;2022-11-09T13:36:17;12.70;99.90
30628;DHT22;17394;50.890;4.724;2022-11-09T13:38:44;12.80;99.90
30628;DHT22;17394;50.890;4.724;2022-11-09T13:46:27;13.10;99.90
30628;DHT22;17394;50.890;4.724;2022-11-09T13:48:54;13.20;99.90
30628;DHT22;17394;50.890;4.724;2022-11-09T13:51:42;13.30;99.90
30628;DHT22;17394;50.890;4.724;2022-11-09T13:54:34;13.40;99.90
30628;DHT22;17394;50.890;4.724;2022-11-09T13:57:02;13.50;99.90
30628;DHT22;17394;50.890;4.724;2022-11-09T13:59:35;13.50;99.90
30628;DHT22;17394;50.890;4.724;2022-11-09T14:02:19;13.50;99.90
30628;DHT22;17394;50.890;4.724;2022-11-09T14:04:45;13.60;99.90
30628;DHT22;17394;50.890;4.724;2022-11-09T14:07:24;13.60;99.90
30628;DHT22;17394;50.890;4.724;2022-11-09T14:10:22;13.60;99.90
30628;DHT22;17394;50.890;4.724;2022-11-09T14:16:07;13.60;99.90
30628;DHT22;17394;50.890;4.724;2022-11-09T14:18:40;13.50;99.90
30628;DHT22;17394;50.890;4.724;2022-11-09T14:24:17;13.50;99.90
30628;DHT22;17394;50.890;4.724;2022-11-09T14:29:47;13.40;99.90
30628;DHT22;17394;50.890;4.724;2022-11-09T14:34:45;13.40;99.90
30628;DHT22;17394;50.890;4.724;2022-11-09T14:37:13;13.40;99.90
30628;DHT22;17394;50.890;4.724;2022-11-09T14:39:39;13.40;99.90
30628;DHT22;17394;50.890;4.724;2022-11-09T14:42:06;13.40;99.90
30628;DHT22;17394;50.890;4.724;2022-11-09T14:44:36;13.30;99.90
30628;DHT22;17394;50.890;4.724;2022-11-09T14:47:21;13.20;99.90
30628;DHT22;17394;50.890;4.724;2022-11-09T14:49:48;13.20;99.90
30628;DHT22;17394;50.890;4.724;2022-11-09T14:52:16;13.20;99.90
30628;DHT22;17394;50.890;4.724;2022-11-09T14:54:44;13.10;99.90
30628;DHT22;17394;50.890;4.724;2022-11-09T14:57:14;13.10;99.90
30628;DHT22;17394;50.890;4.724;2022-11-09T14:59:43;13.00;99.90
30628;DHT22;17394;50.890;4.724;2022-11-09T15:02:12;13.00;99.90
30628;DHT22;17394;50.890;4.724;2022-11-09T15:07:27;12.90;99.90
30628;DHT22;17394;50.890;4.724;2022-11-09T15:10:04;12.80;99.90
30628;DHT22;17394;50.890;4.724;2022-11-09T15:12:33;12.80;99.90
30628;DHT22;17394;50.890;4.724;2022-11-09T15:15:03;12.80;99.90
30628;DHT22;17394;50.890;4.724;2022-11-09T15:17:35;12.80;99.90
30628;DHT22;17394;50.890;4.724;2022-11-09T15:20:23;12.80;99.90
30628;DHT22;17394;50.890;4.724;2022-11-09T15:22:51;12.70;99.90
30628;DHT22;17394;50.890;4.724;2022-11-09T15:30:36;12.60;99.90
30628;DHT22;17394;50.890;4.724;2022-11-09T15:33:20;12.60;99.90
30628;DHT22;17394;50.890;4.724;2022-11-09T15:35:57;12.50;99.90
30628;DHT22;17394;50.890;4.724;2022-11-09T15:38:36;12.50;99.90
30628;DHT22;17394;50.890;4.724;2022-11-09T15:41:12;12.40;99.90
30628;DHT22;17394;50.890;4.724;2022-11-09T15:43:38;12.40;99.90
30628;DHT22;17394;50.890;4.724;2022-11-09T15:46:05;12.40;99.90
30628;DHT22;17394;50.890;4.724;2022-11-09T15:48:32;12.40;99.90
30628;DHT22;17394;50.890;4.724;2022-11-09T15:50:58;12.30;99.90
30628;DHT22;17394;50.890;4.724;2022-11-09T15:53:24;12.30;99.90
30628;DHT22;17394;50.890;4.724;2022-11-09T15:55:51;12.20;99.90
30628;DHT22;17394;50.890;4.724;2022-11-09T15:58:17;12.20;99.90
30628;DHT22;17394;50.890;4.724;2022-11-09T16:00:43;12.10;99.90
30628;DHT22;17394;50.890;4.724;2022-11-09T16:03:10;12.00;99.90
30628;DHT22;17394;50.890;4.724;2022-11-09T16:05:37;11.90;99.90
30628;DHT22;17394;50.890;4.724;2022-11-09T16:08:03;11.80;99.90
30628;DHT22;17394;50.890;4.724;2022-11-09T16:10:33;11.80;99.90
30628;DHT22;17394;50.890;4.724;2022-11-09T16:13:03;11.70;99.90
30628;DHT22;17394;50.890;4.724;2022-11-09T16:15:29;11.70;99.90
30628;DHT22;17394;50.890;4.724;2022-11-09T16:17:55;11.60;99.90
30628;DHT22;17394;50.890;4.724;2022-11-09T16:20:21;11.50;99.90
30628;DHT22;17394;50.890;4.724;2022-11-09T16:22:47;11.50;99.90
30628;DHT22;17394;50.890;4.724;2022-11-09T16:25:13;11.50;99.90
30628;DHT22;17394;50.890;4.724;2022-11-09T16:27:40;11.40;99.90
30628;DHT22;17394;50.890;4.724;2022-11-09T16:30:07;11.30;99.90
30628;DHT22;17394;50.890;4.724;2022-11-09T16:32:34;11.30;99.90
30628;DHT22;17394;50.890;4.724;2022-11-09T16:35:00;11.30;99.90
30628;DHT22;17394;50.890;4.724;2022-11-09T16:37:28;11.20;99.90
30628;DHT22;17394;50.890;4.724;2022-11-09T16:39:57;11.20;99.90
30628;DHT22;17394;50.890;4.724;2022-11-09T16:42:25;11.20;99.90
30628;DHT22;17394;50.890;4.724;2022-11-09T16:44:51;11.20;99.90
30628;DHT22;17394;50.890;4.724;2022-11-09T16:47:18;11.10;99.90
30628;DHT22;17394;50.890;4.724;2022-11-09T16:49:45;11.10;99.90
30628;DHT22;17394;50.890;4.724;2022-11-09T16:52:11;11.10;99.90
30628;DHT22;17394;50.890;4.724;2022-11-09T16:54:37;11.00;99.90
30628;DHT22;17394;50.890;4.724;2022-11-09T16:57:03;10.90;99.90
30628;DHT22;17394;50.890;4.724;2022-11-09T16:59:29;11.00;99.90
30628;DHT22;17394;50.890;4.724;2022-11-09T17:01:56;11.00;99.90
30628;DHT22;17394;50.890;4.724;2022-11-09T17:04:23;11.00;99.90
30628;DHT22;17394;50.890;4.724;2022-11-09T17:06:49;11.00;99.90
30628;DHT22;17394;50.890;4.724;2022-11-09T17:09:15;11.00;99.90
30628;DHT22;17394;50.890;4.724;2022-11-09T17:11:41;11.00;99.90
30628;DHT22;17394;50.890;4.724;2022-11-09T17:14:07;11.00;99.90
30628;DHT22;17394;50.890;4.724;2022-11-09T17:16:36;11.00;99.90
30628;DHT22;17394;50.890;4.724;2022-11-09T17:19:02;11.00;99.90
30628;DHT22;17394;50.890;4.724;2022-11-09T17:21:28;11.00;99.90
30628;DHT22;17394;50.890;4.724;2022-11-09T17:23:55;11.00;99.90
30628;DHT22;17394;50.890;4.724;2022-11-09T17:26:22;11.00;99.90
30628;DHT22;17394;50.890;4.724;2022-11-09T17:28:49;11.00;99.90
30628;DHT22;17394;50.890;4.724;2022-11-09T17:31:22;10.90;99.90
30628;DHT22;17394;50.890;4.724;2022-11-09T17:33:48;10.90;99.90
30628;DHT22;17394;50.890;4.724;2022-11-09T17:36:16;10.90;99.90
30628;DHT22;17394;50.890;4.724;2022-11-09T17:38:42;10.90;99.90